sensor_id;sensor_type;location;lat;lon;timestamp;temperature;humidity
5554;DHT22;2800;49.528;8.666;2023-09-07T00:01:19;19.30;99.90
5554;DHT22;2800;49.528;8.666;2023-09-07T00:03:45;19.30;99.90
5554;DHT22;2800;49.528;8.666;2023-09-07T00:06:10;19.20;99.90
5554;DHT22;2800;49.528;8.666;2023-09-07T00:08:36;19.20;99.90
5554;DHT22;2800;49.528;8.666;2023-09-07T00:11:05;19.20;99.90
5554;DHT22;2800;49.528;8.666;2023-09-07T00:13:32;19.20;99.90
5554;DHT22;2800;49.528;8.666;2023-09-07T00:16:03;19.20;99.90
5554;DHT22;2800;49.528;8.666;2023-09-07T00:18:30;19.30;99.90
5554;DHT22;2800;49.528;8.666;2023-09-07T00:20:55;19.30;99.90
5554;DHT22;2800;49.528;8.666;2023-09-07T00:23:21;19.30;99.90
5554;DHT22;2800;49.528;8.666;2023-09-07T00:25:47;19.40;99.90
5554;DHT22;2800;49.528;8.666;2023-09-07T00:28:12;19.40;99.90
5554;DHT22;2800;49.528;8.666;2023-09-07T00:30:38;19.50;99.90
5554;DHT22;2800;49.528;8.666;2023-09-07T00:33:04;19.50;99.90
5554;DHT22;2800;49.528;8.666;2023-09-07T00:35:30;19.50;99.90
5554;DHT22;2800;49.528;8.666;2023-09-07T00:37:55;19.40;99.90
5554;DHT22;2800;49.528;8.666;2023-09-07T00:40:22;19.40;99.90
5554;DHT22;2800;49.528;8.666;2023-09-07T00:42:47;19.50;99.90
5554;DHT22;2800;49.528;8.666;2023-09-07T00:45:13;19.40;99.90
5554;DHT22;2800;49.528;8.666;2023-09-07T00:47:39;19.50;99.90
5554;DHT22;2800;49.528;8.666;2023-09-07T00:50:06;19.40;99.90
5554;DHT22;2800;49.528;8.666;2023-09-07T00:52:32;19.30;99.90
5554;DHT22;2800;49.528;8.666;2023-09-07T00:54:59;19.50;99.90
5554;DHT22;2800;49.528;8.666;2023-09-07T00:57:25;19.40;99.90
5554;DHT22;2800;49.528;8.666;2023-09-07T00:59:51;19.40;99.90
5554;DHT22;2800;49.528;8.666;2023-09-07T01:02:17;19.30;99.90
5554;DHT22;2800;49.528;8.666;2023-09-07T01:04:42;19.30;99.90
5554;DHT22;2800;49.528;8.666;2023-09-07T01:07:24;19.20;99.90
5554;DHT22;2800;49.528;8.666;2023-09-07T01:09:54;19.30;99.90
5554;DHT22;2800;49.528;8.666;2023-09-07T01:12:21;19.40;99.90
5554;DHT22;2800;49.528;8.666;2023-09-07T01:14:46;19.40;99.90
5554;DHT22;2800;49.528;8.666;2023-09-07T01:17:12;18.40;99.90
5554;DHT22;2800;49.528;8.666;2023-09-07T01:19:39;19.40;99.90
5554;DHT22;2800;49.528;8.666;2023-09-07T01:22:06;19.50;99.90
5554;DHT22;2800;49.528;8.666;2023-09-07T01:24:33;19.80;99.90
5554;DHT22;2800;49.528;8.666;2023-09-07T01:27:01;19.90;99.90
5554;DHT22;2800;49.528;8.666;2023-09-07T01:29:28;19.80;99.90
5554;DHT22;2800;49.528;8.666;2023-09-07T01:31:54;19.80;99.90
5554;DHT22;2800;49.528;8.666;2023-09-07T01:34:20;19.60;99.90
5554;DHT22;2800;49.528;8.666;2023-09-07T01:36:46;19.50;99.90
5554;DHT22;2800;49.528;8.666;2023-09-07T01:39:11;19.30;99.90
5554;DHT22;2800;49.528;8.666;2023-09-07T01:41:37;19.20;99.90
5554;DHT22;2800;49.528;8.666;2023-09-07T01:44:02;19.10;99.90
5554;DHT22;2800;49.528;8.666;2023-09-07T01:46:28;19.10;99.90
5554;DHT22;2800;49.528;8.666;2023-09-07T01:48:54;19.00;99.90
5554;DHT22;2800;49.528;8.666;2023-09-07T01:51:19;18.90;99.90
5554;DHT22;2800;49.528;8.666;2023-09-07T01:53:47;18.90;99.90
5554;DHT22;2800;49.528;8.666;2023-09-07T01:56:15;18.80;99.90
5554;DHT22;2800;49.528;8.666;2023-09-07T01:58:40;18.80;99.90
5554;DHT22;2800;49.528;8.666;2023-09-07T02:01:06;18.80;99.90
5554;DHT22;2800;49.528;8.666;2023-09-07T02:03:31;18.70;99.90
5554;DHT22;2800;49.528;8.666;2023-09-07T02:05:57;18.70;99.90
5554;DHT22;2800;49.528;8.666;2023-09-07T02:08:22;18.70;99.90
5554;DHT22;2800;49.528;8.666;2023-09-07T02:10:48;18.70;99.90
5554;DHT22;2800;49.528;8.666;2023-09-07T02:13:14;18.60;99.90
5554;DHT22;2800;49.528;8.666;2023-09-07T02:15:39;18.50;99.90
5554;DHT22;2800;49.528;8.666;2023-09-07T02:18:05;18.50;99.90
5554;DHT22;2800;49.528;8.666;2023-09-07T02:20:32;18.50;99.90
5554;DHT22;2800;49.528;8.666;2023-09-07T02:22:58;18.50;99.90
5554;DHT22;2800;49.528;8.666;2023-09-07T02:25:23;18.50;99.90
5554;DHT22;2800;49.528;8.666;2023-09-07T02:27:49;18.50;99.90
5554;DHT22;2800;49.528;8.666;2023-09-07T02:30:14;18.60;99.90
5554;DHT22;2800;49.528;8.666;2023-09-07T02:32:42;18.60;99.90
5554;DHT22;2800;49.528;8.666;2023-09-07T02:35:08;18.60;99.90
5554;DHT22;2800;49.528;8.666;2023-09-07T02:37:35;18.60;99.90
5554;DHT22;2800;49.528;8.666;2023-09-07T02:40:01;18.60;99.90
5554;DHT22;2800;49.528;8.666;2023-09-07T02:42:26;18.70;99.90
5554;DHT22;2800;49.528;8.666;2023-09-07T02:44:52;18.70;99.90
5554;DHT22;2800;49.528;8.666;2023-09-07T02:47:17;18.60;99.90
5554;DHT22;2800;49.528;8.666;2023-09-07T02:49:43;18.60;99.90
5554;DHT22;2800;49.528;8.666;2023-09-07T02:52:08;18.60;99.90
5554;DHT22;2800;49.528;8.666;2023-09-07T02:54:34;18.50;99.90
5554;DHT22;2800;49.528;8.666;2023-09-07T02:56:59;18.50;99.90
5554;DHT22;2800;49.528;8.666;2023-09-07T02:59:25;18.70;99.90
5554;DHT22;2800;49.528;8.666;2023-09-07T03:01:51;18.70;99.90
5554;DHT22;2800;49.528;8.666;2023-09-07T03:04:16;18.90;99.90
5554;DHT22;2800;49.528;8.666;2023-09-07T03:06:42;19.00;99.90
5554;DHT22;2800;49.528;8.666;2023-09-07T03:09:07;19.00;99.90
5554;DHT22;2800;49.528;8.666;2023-09-07T03:11:34;19.30;99.90
5554;DHT22;2800;49.528;8.666;2023-09-07T03:14:00;19.20;99.90
5554;DHT22;2800;49.528;8.666;2023-09-07T03:16:26;19.30;99.90
5554;DHT22;2800;49.528;8.666;2023-09-07T03:18:51;19.40;99.90
5554;DHT22;2800;49.528;8.666;2023-09-07T03:21:17;19.30;99.90
5554;DHT22;2800;49.528;8.666;2023-09-07T03:23:43;19.40;99.90
5554;DHT22;2800;49.528;8.666;2023-09-07T03:26:10;19.50;99.90
5554;DHT22;2800;49.528;8.666;2023-09-07T03:28:36;19.60;99.90
5554;DHT22;2800;49.528;8.666;2023-09-07T03:31:02;19.70;99.90
5554;DHT22;2800;49.528;8.666;2023-09-07T03:33:27;20.00;99.90
5554;DHT22;2800;49.528;8.666;2023-09-07T03:35:53;20.00;99.90
5554;DHT22;2800;49.528;8.666;2023-09-07T03:38:23;19.90;99.90
5554;DHT22;2800;49.528;8.666;2023-09-07T03:40:49;19.70;99.90
5554;DHT22;2800;49.528;8.666;2023-09-07T03:43:14;19.80;99.90
5554;DHT22;2800;49.528;8.666;2023-09-07T03:45:40;19.80;99.90
5554;DHT22;2800;49.528;8.666;2023-09-07T03:48:06;19.70;99.90
5554;DHT22;2800;49.528;8.666;2023-09-07T03:50:31;19.60;99.90
5554;DHT22;2800;49.528;8.666;2023-09-07T03:52:57;19.70;99.90
5554;DHT22;2800;49.528;8.666;2023-09-07T03:55:23;19.80;99.90
5554;DHT22;2800;49.528;8.666;2023-09-07T03:57:49;19.60;99.90
5554;DHT22;2800;49.528;8.666;2023-09-07T04:00:14;19.50;99.90
5554;DHT22;2800;49.528;8.666;2023-09-07T04:02:41;19.40;99.90
5554;DHT22;2800;49.528;8.666;2023-09-07T04:05:06;19.30;99.90
5554;DHT22;2800;49.528;8.666;2023-09-07T04:07:32;19.20;99.90
5554;DHT22;2800;49.528;8.666;2023-09-07T04:09:58;19.10;99.90
5554;DHT22;2800;49.528;8.666;2023-09-07T04:12:24;19.10;99.90
5554;DHT22;2800;49.528;8.666;2023-09-07T04:14:50;19.10;99.90
5554;DHT22;2800;49.528;8.666;2023-09-07T04:17:15;19.10;99.90
5554;DHT22;2800;49.528;8.666;2023-09-07T04:19:41;19.10;99.90
5554;DHT22;2800;49.528;8.666;2023-09-07T04:22:08;19.00;99.90
5554;DHT22;2800;49.528;8.666;2023-09-07T04:24:34;19.10;99.90
5554;DHT22;2800;49.528;8.666;2023-09-07T04:27:00;19.30;99.90
5554;DHT22;2800;49.528;8.666;2023-09-07T04:29:29;19.40;99.90
5554;DHT22;2800;49.528;8.666;2023-09-07T04:31:54;19.40;99.90
5554;DHT22;2800;49.528;8.666;2023-09-07T04:34:21;19.40;99.90
5554;DHT22;2800;49.528;8.666;2023-09-07T04:36:47;19.40;99.90
5554;DHT22;2800;49.528;8.666;2023-09-07T04:39:13;19.40;99.90
5554;DHT22;2800;49.528;8.666;2023-09-07T04:41:40;19.40;99.90
5554;DHT22;2800;49.528;8.666;2023-09-07T04:44:05;19.20;99.90
5554;DHT22;2800;49.528;8.666;2023-09-07T04:46:31;19.30;99.90
5554;DHT22;2800;49.528;8.666;2023-09-07T04:48:56;19.20;99.90
5554;DHT22;2800;49.528;8.666;2023-09-07T04:51:22;19.20;99.90
5554;DHT22;2800;49.528;8.666;2023-09-07T04:53:49;19.00;99.90
5554;DHT22;2800;49.528;8.666;2023-09-07T04:56:14;18.80;99.90
5554;DHT22;2800;49.528;8.666;2023-09-07T04:58:41;18.70;99.90
5554;DHT22;2800;49.528;8.666;2023-09-07T05:01:08;19.00;99.90
5554;DHT22;2800;49.528;8.666;2023-09-07T05:03:35;19.30;99.90
5554;DHT22;2800;49.528;8.666;2023-09-07T05:06:00;19.50;99.90
5554;DHT22;2800;49.528;8.666;2023-09-07T05:08:26;19.50;99.90
5554;DHT22;2800;49.528;8.666;2023-09-07T05:11:00;19.20;99.90
5554;DHT22;2800;49.528;8.666;2023-09-07T05:13:26;18.80;99.90
5554;DHT22;2800;49.528;8.666;2023-09-07T05:15:54;18.50;99.90
5554;DHT22;2800;49.528;8.666;2023-09-07T05:18:21;18.40;99.90
5554;DHT22;2800;49.528;8.666;2023-09-07T05:20:46;18.40;99.90
5554;DHT22;2800;49.528;8.666;2023-09-07T05:23:17;18.50;99.90
5554;DHT22;2800;49.528;8.666;2023-09-07T05:26:02;18.50;99.90
5554;DHT22;2800;49.528;8.666;2023-09-07T05:28:28;18.50;99.90
5554;DHT22;2800;49.528;8.666;2023-09-07T05:30:53;18.40;99.90
5554;DHT22;2800;49.528;8.666;2023-09-07T05:33:19;18.40;99.90
5554;DHT22;2800;49.528;8.666;2023-09-07T05:35:44;18.50;99.90
5554;DHT22;2800;49.528;8.666;2023-09-07T05:38:11;18.50;99.90
5554;DHT22;2800;49.528;8.666;2023-09-07T05:40:38;18.60;99.90
5554;DHT22;2800;49.528;8.666;2023-09-07T05:43:04;18.60;99.90
5554;DHT22;2800;49.528;8.666;2023-09-07T05:45:40;18.50;99.90
5554;DHT22;2800;49.528;8.666;2023-09-07T05:48:07;18.50;99.90
5554;DHT22;2800;49.528;8.666;2023-09-07T05:50:35;18.50;99.90
5554;DHT22;2800;49.528;8.666;2023-09-07T05:53:01;18.50;99.90
5554;DHT22;2800;49.528;8.666;2023-09-07T05:55:27;18.60;99.90
5554;DHT22;2800;49.528;8.666;2023-09-07T05:57:56;18.90;99.90
5554;DHT22;2800;49.528;8.666;2023-09-07T06:00:22;19.30;99.90
5554;DHT22;2800;49.528;8.666;2023-09-07T06:02:49;19.60;99.90
5554;DHT22;2800;49.528;8.666;2023-09-07T06:05:15;19.90;99.90
5554;DHT22;2800;49.528;8.666;2023-09-07T06:07:40;20.20;99.90
5554;DHT22;2800;49.528;8.666;2023-09-07T06:10:06;20.50;99.90
5554;DHT22;2800;49.528;8.666;2023-09-07T06:12:32;20.90;99.90
5554;DHT22;2800;49.528;8.666;2023-09-07T06:14:59;21.30;99.90
5554;DHT22;2800;49.528;8.666;2023-09-07T06:17:24;21.60;99.90
5554;DHT22;2800;49.528;8.666;2023-09-07T06:19:50;21.80;99.90
5554;DHT22;2800;49.528;8.666;2023-09-07T06:22:15;21.80;99.90
5554;DHT22;2800;49.528;8.666;2023-09-07T06:24:41;22.20;99.90
5554;DHT22;2800;49.528;8.666;2023-09-07T06:27:06;22.40;99.90
5554;DHT22;2800;49.528;8.666;2023-09-07T06:29:32;22.50;99.90
5554;DHT22;2800;49.528;8.666;2023-09-07T06:31:57;23.00;99.90
5554;DHT22;2800;49.528;8.666;2023-09-07T06:34:23;23.10;99.90
5554;DHT22;2800;49.528;8.666;2023-09-07T06:36:49;23.20;99.90
5554;DHT22;2800;49.528;8.666;2023-09-07T06:39:14;23.50;99.90
5554;DHT22;2800;49.528;8.666;2023-09-07T06:41:40;23.50;99.90
5554;DHT22;2800;49.528;8.666;2023-09-07T06:44:06;23.60;99.90
5554;DHT22;2800;49.528;8.666;2023-09-07T06:46:31;23.80;99.90
5554;DHT22;2800;49.528;8.666;2023-09-07T06:48:57;24.10;99.90
5554;DHT22;2800;49.528;8.666;2023-09-07T06:51:22;24.10;99.90
5554;DHT22;2800;49.528;8.666;2023-09-07T06:53:48;24.20;99.90
5554;DHT22;2800;49.528;8.666;2023-09-07T06:56:15;23.90;99.90
5554;DHT22;2800;49.528;8.666;2023-09-07T06:58:41;23.70;99.90
5554;DHT22;2800;49.528;8.666;2023-09-07T07:01:07;23.60;99.90
5554;DHT22;2800;49.528;8.666;2023-09-07T07:03:33;23.70;99.90
5554;DHT22;2800;49.528;8.666;2023-09-07T07:05:59;23.90;99.90
5554;DHT22;2800;49.528;8.666;2023-09-07T07:08:25;24.00;99.90
5554;DHT22;2800;49.528;8.666;2023-09-07T07:10:50;24.30;99.90
5554;DHT22;2800;49.528;8.666;2023-09-07T07:13:16;24.50;99.90
5554;DHT22;2800;49.528;8.666;2023-09-07T07:15:42;24.80;99.90
5554;DHT22;2800;49.528;8.666;2023-09-07T07:18:08;24.60;99.90
5554;DHT22;2800;49.528;8.666;2023-09-07T07:20:38;24.90;99.90
5554;DHT22;2800;49.528;8.666;2023-09-07T07:23:04;24.90;99.90
5554;DHT22;2800;49.528;8.666;2023-09-07T07:25:31;25.00;99.90
5554;DHT22;2800;49.528;8.666;2023-09-07T07:27:59;25.30;99.90
5554;DHT22;2800;49.528;8.666;2023-09-07T07:30:27;25.40;99.90
5554;DHT22;2800;49.528;8.666;2023-09-07T07:32:53;25.50;99.90
5554;DHT22;2800;49.528;8.666;2023-09-07T07:35:19;25.60;99.90
5554;DHT22;2800;49.528;8.666;2023-09-07T07:37:44;25.70;99.90
5554;DHT22;2800;49.528;8.666;2023-09-07T07:40:10;26.10;99.90
5554;DHT22;2800;49.528;8.666;2023-09-07T07:42:36;26.10;99.90
5554;DHT22;2800;49.528;8.666;2023-09-07T07:45:01;26.20;99.90
5554;DHT22;2800;49.528;8.666;2023-09-07T07:47:27;26.40;99.90
5554;DHT22;2800;49.528;8.666;2023-09-07T07:49:53;26.60;99.90
5554;DHT22;2800;49.528;8.666;2023-09-07T07:52:18;26.70;99.90
5554;DHT22;2800;49.528;8.666;2023-09-07T07:54:43;27.20;99.90
5554;DHT22;2800;49.528;8.666;2023-09-07T07:57:09;26.90;99.90
5554;DHT22;2800;49.528;8.666;2023-09-07T07:59:36;27.10;99.90
5554;DHT22;2800;49.528;8.666;2023-09-07T08:02:01;27.30;99.90
5554;DHT22;2800;49.528;8.666;2023-09-07T08:04:27;27.30;99.90
5554;DHT22;2800;49.528;8.666;2023-09-07T08:06:53;27.20;99.90
5554;DHT22;2800;49.528;8.666;2023-09-07T08:09:23;27.10;99.90
5554;DHT22;2800;49.528;8.666;2023-09-07T08:11:49;26.70;99.90
5554;DHT22;2800;49.528;8.666;2023-09-07T08:14:14;26.20;99.90
5554;DHT22;2800;49.528;8.666;2023-09-07T08:16:40;26.70;99.90
5554;DHT22;2800;49.528;8.666;2023-09-07T08:19:05;26.90;99.90
5554;DHT22;2800;49.528;8.666;2023-09-07T08:21:31;27.50;99.90
5554;DHT22;2800;49.528;8.666;2023-09-07T08:23:56;27.20;99.90
5554;DHT22;2800;49.528;8.666;2023-09-07T08:26:22;26.60;99.90
5554;DHT22;2800;49.528;8.666;2023-09-07T08:28:47;26.60;99.90
5554;DHT22;2800;49.528;8.666;2023-09-07T08:31:13;26.90;99.90
5554;DHT22;2800;49.528;8.666;2023-09-07T08:33:46;26.80;99.90
5554;DHT22;2800;49.528;8.666;2023-09-07T08:36:11;27.20;99.90
5554;DHT22;2800;49.528;8.666;2023-09-07T08:38:37;27.70;99.90
5554;DHT22;2800;49.528;8.666;2023-09-07T08:41:03;28.00;99.90
5554;DHT22;2800;49.528;8.666;2023-09-07T08:43:35;27.70;99.90
5554;DHT22;2800;49.528;8.666;2023-09-07T08:46:17;27.40;99.90
5554;DHT22;2800;49.528;8.666;2023-09-07T08:48:44;27.40;99.90
5554;DHT22;2800;49.528;8.666;2023-09-07T08:51:12;27.60;99.90
5554;DHT22;2800;49.528;8.666;2023-09-07T08:53:39;27.90;99.90
5554;DHT22;2800;49.528;8.666;2023-09-07T08:56:05;27.70;99.90
5554;DHT22;2800;49.528;8.666;2023-09-07T08:58:35;28.30;99.90
5554;DHT22;2800;49.528;8.666;2023-09-07T09:01:01;28.50;99.90
5554;DHT22;2800;49.528;8.666;2023-09-07T09:03:26;28.60;99.90
5554;DHT22;2800;49.528;8.666;2023-09-07T09:05:55;29.00;99.90
5554;DHT22;2800;49.528;8.666;2023-09-07T09:08:21;28.40;99.90
5554;DHT22;2800;49.528;8.666;2023-09-07T09:11:02;28.40;99.90
5554;DHT22;2800;49.528;8.666;2023-09-07T09:13:32;28.20;99.90
5554;DHT22;2800;49.528;8.666;2023-09-07T09:16:01;28.30;99.90
5554;DHT22;2800;49.528;8.666;2023-09-07T09:18:27;29.00;99.90
5554;DHT22;2800;49.528;8.666;2023-09-07T09:20:54;29.50;99.90
5554;DHT22;2800;49.528;8.666;2023-09-07T09:23:20;30.30;99.90
5554;DHT22;2800;49.528;8.666;2023-09-07T09:25:48;30.50;99.90
5554;DHT22;2800;49.528;8.666;2023-09-07T09:28:14;30.60;99.90
5554;DHT22;2800;49.528;8.666;2023-09-07T09:30:41;30.50;99.90
5554;DHT22;2800;49.528;8.666;2023-09-07T09:33:09;30.60;99.90
5554;DHT22;2800;49.528;8.666;2023-09-07T09:35:35;31.20;99.90
5554;DHT22;2800;49.528;8.666;2023-09-07T09:38:01;30.80;99.90
5554;DHT22;2800;49.528;8.666;2023-09-07T09:40:31;31.10;99.90
5554;DHT22;2800;49.528;8.666;2023-09-07T09:42:59;31.30;99.90
5554;DHT22;2800;49.528;8.666;2023-09-07T09:45:27;31.60;99.90
5554;DHT22;2800;49.528;8.666;2023-09-07T09:47:54;31.80;99.90
5554;DHT22;2800;49.528;8.666;2023-09-07T09:50:22;32.00;99.90
5554;DHT22;2800;49.528;8.666;2023-09-07T09:52:48;32.00;99.90
5554;DHT22;2800;49.528;8.666;2023-09-07T09:55:15;32.10;99.90
5554;DHT22;2800;49.528;8.666;2023-09-07T09:57:41;32.00;99.90
5554;DHT22;2800;49.528;8.666;2023-09-07T10:00:08;32.30;99.90
5554;DHT22;2800;49.528;8.666;2023-09-07T10:02:46;32.10;99.90
5554;DHT22;2800;49.528;8.666;2023-09-07T10:05:12;32.10;99.90
5554;DHT22;2800;49.528;8.666;2023-09-07T10:07:43;32.40;99.90
5554;DHT22;2800;49.528;8.666;2023-09-07T10:10:13;32.60;99.90
5554;DHT22;2800;49.528;8.666;2023-09-07T10:12:52;32.60;99.90
5554;DHT22;2800;49.528;8.666;2023-09-07T10:15:25;32.80;99.90
5554;DHT22;2800;49.528;8.666;2023-09-07T10:18:09;33.20;99.90
5554;DHT22;2800;49.528;8.666;2023-09-07T10:20:50;33.00;99.90
5554;DHT22;2800;49.528;8.666;2023-09-07T10:23:16;33.40;99.90
5554;DHT22;2800;49.528;8.666;2023-09-07T10:25:41;33.70;99.90
5554;DHT22;2800;49.528;8.666;2023-09-07T10:28:24;33.50;99.90
5554;DHT22;2800;49.528;8.666;2023-09-07T10:31:12;34.10;99.90
5554;DHT22;2800;49.528;8.666;2023-09-07T10:33:38;33.20;99.90
5554;DHT22;2800;49.528;8.666;2023-09-07T10:36:05;34.00;99.90
5554;DHT22;2800;49.528;8.666;2023-09-07T10:38:32;34.10;99.90
5554;DHT22;2800;49.528;8.666;2023-09-07T10:40:59;34.10;99.90
5554;DHT22;2800;49.528;8.666;2023-09-07T10:43:30;34.20;99.90
5554;DHT22;2800;49.528;8.666;2023-09-07T10:45:57;33.30;99.90
5554;DHT22;2800;49.528;8.666;2023-09-07T10:48:25;33.80;99.90
5554;DHT22;2800;49.528;8.666;2023-09-07T10:50:51;34.40;99.90
5554;DHT22;2800;49.528;8.666;2023-09-07T10:53:25;34.50;99.90
5554;DHT22;2800;49.528;8.666;2023-09-07T10:55:52;34.90;99.90
5554;DHT22;2800;49.528;8.666;2023-09-07T10:58:35;35.10;99.90
5554;DHT22;2800;49.528;8.666;2023-09-07T11:01:03;35.60;99.90
5554;DHT22;2800;49.528;8.666;2023-09-07T11:03:30;35.60;99.90
5554;DHT22;2800;49.528;8.666;2023-09-07T11:06:03;35.70;99.90
5554;DHT22;2800;49.528;8.666;2023-09-07T11:08:29;36.10;99.90
5554;DHT22;2800;49.528;8.666;2023-09-07T11:10:55;36.50;99.90
5554;DHT22;2800;49.528;8.666;2023-09-07T11:13:25;36.50;99.90
5554;DHT22;2800;49.528;8.666;2023-09-07T11:15:54;36.30;99.90
5554;DHT22;2800;49.528;8.666;2023-09-07T11:18:21;35.60;99.90
5554;DHT22;2800;49.528;8.666;2023-09-07T11:20:50;35.60;99.90
5554;DHT22;2800;49.528;8.666;2023-09-07T11:23:17;35.60;99.90
5554;DHT22;2800;49.528;8.666;2023-09-07T11:25:43;34.70;99.90
5554;DHT22;2800;49.528;8.666;2023-09-07T11:28:09;35.70;99.90
5554;DHT22;2800;49.528;8.666;2023-09-07T11:30:37;36.50;99.90
5554;DHT22;2800;49.528;8.666;2023-09-07T11:33:07;36.80;99.90
5554;DHT22;2800;49.528;8.666;2023-09-07T11:35:34;36.50;99.90
5554;DHT22;2800;49.528;8.666;2023-09-07T11:38:00;35.60;99.90
5554;DHT22;2800;49.528;8.666;2023-09-07T11:40:27;35.30;99.90
5554;DHT22;2800;49.528;8.666;2023-09-07T11:42:52;35.70;99.90
5554;DHT22;2800;49.528;8.666;2023-09-07T11:45:18;36.80;99.90
5554;DHT22;2800;49.528;8.666;2023-09-07T11:47:45;36.60;99.90
5554;DHT22;2800;49.528;8.666;2023-09-07T11:50:10;36.70;99.90
5554;DHT22;2800;49.528;8.666;2023-09-07T11:52:36;37.30;99.90
5554;DHT22;2800;49.528;8.666;2023-09-07T11:55:01;38.10;99.90
5554;DHT22;2800;49.528;8.666;2023-09-07T11:57:29;38.80;99.90
5554;DHT22;2800;49.528;8.666;2023-09-07T11:59:54;38.70;99.90
5554;DHT22;2800;49.528;8.666;2023-09-07T12:02:20;38.00;99.90
5554;DHT22;2800;49.528;8.666;2023-09-07T12:04:47;37.60;99.90
5554;DHT22;2800;49.528;8.666;2023-09-07T12:07:12;38.10;99.90
5554;DHT22;2800;49.528;8.666;2023-09-07T12:09:38;38.10;99.90
5554;DHT22;2800;49.528;8.666;2023-09-07T12:12:04;39.50;99.90
5554;DHT22;2800;49.528;8.666;2023-09-07T12:14:30;39.20;99.90
5554;DHT22;2800;49.528;8.666;2023-09-07T12:16:56;39.80;99.90
5554;DHT22;2800;49.528;8.666;2023-09-07T12:19:22;38.70;99.90
5554;DHT22;2800;49.528;8.666;2023-09-07T12:21:48;37.20;99.90
5554;DHT22;2800;49.528;8.666;2023-09-07T12:24:13;37.20;99.90
5554;DHT22;2800;49.528;8.666;2023-09-07T12:26:39;37.50;99.90
5554;DHT22;2800;49.528;8.666;2023-09-07T12:29:04;38.10;99.90
5554;DHT22;2800;49.528;8.666;2023-09-07T12:31:30;39.10;99.90
5554;DHT22;2800;49.528;8.666;2023-09-07T12:33:56;39.40;99.90
5554;DHT22;2800;49.528;8.666;2023-09-07T12:36:22;39.80;99.90
5554;DHT22;2800;49.528;8.666;2023-09-07T12:38:47;38.80;99.90
5554;DHT22;2800;49.528;8.666;2023-09-07T12:41:13;39.70;99.90
5554;DHT22;2800;49.528;8.666;2023-09-07T12:43:39;39.70;99.90
5554;DHT22;2800;49.528;8.666;2023-09-07T12:46:04;38.40;99.90
5554;DHT22;2800;49.528;8.666;2023-09-07T12:48:30;39.30;99.90
5554;DHT22;2800;49.528;8.666;2023-09-07T12:50:55;37.80;99.90
5554;DHT22;2800;49.528;8.666;2023-09-07T12:53:21;38.00;99.90
5554;DHT22;2800;49.528;8.666;2023-09-07T12:55:54;39.10;99.90
5554;DHT22;2800;49.528;8.666;2023-09-07T12:58:19;39.90;99.90
5554;DHT22;2800;49.528;8.666;2023-09-07T13:00:45;38.50;99.90
5554;DHT22;2800;49.528;8.666;2023-09-07T13:03:13;37.70;99.90
5554;DHT22;2800;49.528;8.666;2023-09-07T13:05:39;38.90;99.90
5554;DHT22;2800;49.528;8.666;2023-09-07T13:08:04;36.60;99.90
5554;DHT22;2800;49.528;8.666;2023-09-07T13:10:32;37.60;99.90
5554;DHT22;2800;49.528;8.666;2023-09-07T13:12:57;37.10;99.90
5554;DHT22;2800;49.528;8.666;2023-09-07T13:15:23;37.80;99.90
5554;DHT22;2800;49.528;8.666;2023-09-07T13:17:49;37.90;99.90
5554;DHT22;2800;49.528;8.666;2023-09-07T13:20:14;38.40;99.90
5554;DHT22;2800;49.528;8.666;2023-09-07T13:22:40;39.30;99.90
5554;DHT22;2800;49.528;8.666;2023-09-07T13:25:05;39.70;99.90
5554;DHT22;2800;49.528;8.666;2023-09-07T13:27:31;39.10;99.90
5554;DHT22;2800;49.528;8.666;2023-09-07T13:29:56;36.80;99.90
5554;DHT22;2800;49.528;8.666;2023-09-07T13:32:23;37.70;99.90
5554;DHT22;2800;49.528;8.666;2023-09-07T13:34:50;37.40;99.90
5554;DHT22;2800;49.528;8.666;2023-09-07T13:37:15;37.70;99.90
5554;DHT22;2800;49.528;8.666;2023-09-07T13:39:41;37.90;99.90
5554;DHT22;2800;49.528;8.666;2023-09-07T13:42:06;38.80;99.90
5554;DHT22;2800;49.528;8.666;2023-09-07T13:44:32;38.20;99.90
5554;DHT22;2800;49.528;8.666;2023-09-07T13:46:57;38.40;99.90
5554;DHT22;2800;49.528;8.666;2023-09-07T13:49:23;39.30;99.90
5554;DHT22;2800;49.528;8.666;2023-09-07T13:51:48;38.90;99.90
5554;DHT22;2800;49.528;8.666;2023-09-07T13:54:14;39.10;99.90
5554;DHT22;2800;49.528;8.666;2023-09-07T13:56:39;38.80;99.90
5554;DHT22;2800;49.528;8.666;2023-09-07T13:59:07;38.30;99.90
5554;DHT22;2800;49.528;8.666;2023-09-07T14:01:33;37.60;99.90
5554;DHT22;2800;49.528;8.666;2023-09-07T14:03:58;36.40;99.90
5554;DHT22;2800;49.528;8.666;2023-09-07T14:06:24;36.10;99.90
5554;DHT22;2800;49.528;8.666;2023-09-07T14:08:50;35.80;99.90
5554;DHT22;2800;49.528;8.666;2023-09-07T14:11:17;36.60;99.90
5554;DHT22;2800;49.528;8.666;2023-09-07T14:13:42;37.80;99.90
5554;DHT22;2800;49.528;8.666;2023-09-07T14:16:08;38.20;99.90
5554;DHT22;2800;49.528;8.666;2023-09-07T14:18:36;38.10;99.90
5554;DHT22;2800;49.528;8.666;2023-09-07T14:21:02;37.10;99.90
5554;DHT22;2800;49.528;8.666;2023-09-07T14:23:27;35.90;99.90
5554;DHT22;2800;49.528;8.666;2023-09-07T14:25:54;35.90;99.90
5554;DHT22;2800;49.528;8.666;2023-09-07T14:28:20;36.60;99.90
5554;DHT22;2800;49.528;8.666;2023-09-07T14:30:45;36.50;99.90
5554;DHT22;2800;49.528;8.666;2023-09-07T14:33:11;36.60;99.90
5554;DHT22;2800;49.528;8.666;2023-09-07T14:35:36;36.60;99.90
5554;DHT22;2800;49.528;8.666;2023-09-07T14:38:02;36.70;99.90
5554;DHT22;2800;49.528;8.666;2023-09-07T14:40:27;37.00;99.90
5554;DHT22;2800;49.528;8.666;2023-09-07T14:42:53;36.50;99.90
5554;DHT22;2800;49.528;8.666;2023-09-07T14:45:19;36.00;99.90
5554;DHT22;2800;49.528;8.666;2023-09-07T14:47:45;34.80;99.90
5554;DHT22;2800;49.528;8.666;2023-09-07T14:50:10;34.70;99.90
5554;DHT22;2800;49.528;8.666;2023-09-07T14:52:36;34.70;99.90
5554;DHT22;2800;49.528;8.666;2023-09-07T14:55:07;35.50;99.90
5554;DHT22;2800;49.528;8.666;2023-09-07T14:57:33;36.30;99.90
5554;DHT22;2800;49.528;8.666;2023-09-07T14:59:59;36.70;99.90
5554;DHT22;2800;49.528;8.666;2023-09-07T15:02:25;37.90;99.90
5554;DHT22;2800;49.528;8.666;2023-09-07T15:04:51;37.40;99.90
5554;DHT22;2800;49.528;8.666;2023-09-07T15:07:16;36.60;99.90
5554;DHT22;2800;49.528;8.666;2023-09-07T15:09:42;36.20;99.90
5554;DHT22;2800;49.528;8.666;2023-09-07T15:12:07;36.20;99.90
5554;DHT22;2800;49.528;8.666;2023-09-07T15:14:33;36.40;99.90
5554;DHT22;2800;49.528;8.666;2023-09-07T15:16:59;36.30;99.90
5554;DHT22;2800;49.528;8.666;2023-09-07T15:19:24;36.30;99.90
5554;DHT22;2800;49.528;8.666;2023-09-07T15:21:50;36.30;99.90
5554;DHT22;2800;49.528;8.666;2023-09-07T15:24:18;37.40;99.90
5554;DHT22;2800;49.528;8.666;2023-09-07T15:26:45;37.10;99.90
5554;DHT22;2800;49.528;8.666;2023-09-07T15:29:11;36.40;99.90
5554;DHT22;2800;49.528;8.666;2023-09-07T15:31:38;36.80;99.90
5554;DHT22;2800;49.528;8.666;2023-09-07T15:34:03;37.80;99.90
5554;DHT22;2800;49.528;8.666;2023-09-07T15:36:30;37.90;99.90
5554;DHT22;2800;49.528;8.666;2023-09-07T15:38:55;37.00;99.90
5554;DHT22;2800;49.528;8.666;2023-09-07T15:41:21;37.00;99.90
5554;DHT22;2800;49.528;8.666;2023-09-07T15:43:46;36.70;99.90
5554;DHT22;2800;49.528;8.666;2023-09-07T15:46:12;36.80;99.90
5554;DHT22;2800;49.528;8.666;2023-09-07T15:48:37;36.70;99.90
5554;DHT22;2800;49.528;8.666;2023-09-07T15:51:05;36.20;99.90
5554;DHT22;2800;49.528;8.666;2023-09-07T15:53:32;36.20;99.90
5554;DHT22;2800;49.528;8.666;2023-09-07T15:55:58;35.50;99.90
5554;DHT22;2800;49.528;8.666;2023-09-07T15:58:24;35.90;99.90